Time;durP1;ratioP1;P1;durP2;ratioP2;P2;SDS_P1;SDS_P2;PMS_P1;PMS_P2;Temp;Humidity;BMP_temperature;BMP_pressure;BME280_temperature;BME280_humidity;BME280_pressure;Samples;Min_cycle;Max_cycle;Signal;HPM_P1;HPM_P2
2022/10/16 00:01:39;;;;;;;5.23;1.00;;;25.80;69.70;;;;;;5092205;28;20258;-72
2022/10/16 00:04:07;;;;;;;4.80;0.90;;;26.30;69.50;;;;;;5073215;28;20589;-77
2022/10/16 00:06:34;;;;;;;4.27;0.90;;;26.70;67.30;;;;;;5074675;28;20179;-77
2022/10/16 00:09:02;;;;;;;2.77;0.97;;;27.20;63.80;;;;;;5084479;28;20286;-71
2022/10/16 00:11:38;;;;;;;3.57;1.23;;;28.00;61.20;;;;;;5071847;28;20723;-74
2022/10/16 00:14:10;;;;;;;1.43;0.73;;;28.30;56.10;;;;;;5071589;28;20284;-76
2022/10/16 00:16:38;;;;;;;4.37;1.30;;;28.50;56.40;;;;;;5080643;28;20255;-69
2022/10/16 00:19:06;;;;;;;2.10;1.37;;;28.30;61.40;;;;;;5091842;28;20186;-71
2022/10/16 00:21:35;;;;;;;5.70;1.30;;;28.20;60.20;;;;;;5091925;28;20175;-71
2022/10/16 00:24:06;;;;;;;3.43;1.00;;;27.90;66.60;;;;;;5091854;28;20175;-72
2022/10/16 00:26:37;;;;;;;4.10;0.70;;;28.10;62.70;;;;;;5089090;28;20180;-71
2022/10/16 00:29:06;;;;;;;4.27;0.90;;;27.60;67.30;;;;;;5071664;28;20190;-71
2022/10/16 00:31:37;;;;;;;2.80;0.90;;;27.60;65.40;;;;;;5071412;28;20633;-71
2022/10/16 00:34:05;;;;;;;3.37;1.00;;;28.00;65.00;;;;;;5071475;28;20212;-70
2022/10/16 00:36:33;;;;;;;3.10;0.73;;;28.20;57.90;;;;;;5074714;28;20171;-70
2022/10/16 00:39:02;;;;;;;2.67;1.00;;;28.50;55.00;;;;;;5083782;28;20195;-71
2022/10/16 00:41:30;;;;;;;6.80;1.20;;;28.40;57.50;;;;;;5071369;28;20175;-71
2022/10/16 00:44:00;;;;;;;4.37;0.90;;;27.60;62.30;;;;;;5084139;28;20186;-72
2022/10/16 00:46:35;;;;;;;4.40;0.97;;;28.00;58.10;;;;;;5079355;28;20228;-71
2022/10/16 00:49:14;;;;;;;4.13;0.90;;;27.80;60.10;;;;;;5090704;28;20190;-71
2022/10/16 00:51:48;;;;;;;2.53;0.90;;;27.60;59.40;;;;;;5071024;28;20172;-71
2022/10/16 00:54:23;;;;;;;5.33;1.50;;;27.20;59.90;;;;;;5090606;28;20215;-72
2022/10/16 00:56:53;;;;;;;3.33;1.00;;;26.80;62.50;;;;;;5090757;28;20220;-68
2022/10/16 00:59:41;;;;;;;3.17;0.93;;;26.20;63.60;;;;;;5091532;28;20901;-70
2022/10/16 01:02:12;;;;;;;6.73;0.90;;;25.50;64.40;;;;;;5091507;28;20204;-68
2022/10/16 01:04:52;;;;;;;3.30;0.73;;;25.40;75.30;;;;;;5086247;28;20652;-68
2022/10/16 01:07:26;;;;;;;4.47;1.10;;;26.10;80.30;;;;;;5084325;28;20243;-69
2022/10/16 01:10:15;;;;;;;5.50;1.00;;;26.10;76.60;;;;;;5073204;28;20227;-71
2022/10/16 01:12:58;;;;;;;5.70;1.10;;;26.70;82.10;;;;;;5091376;28;20250;-71
2022/10/16 01:15:38;;;;;;;4.53;1.30;;;27.50;70.80;;;;;;5091362;28;20176;-69
2022/10/16 01:18:27;;;;;;;2.50;0.80;;;28.20;80.60;;;;;;5056294;28;20211;-69
2022/10/16 01:21:03;;;;;;;7.03;0.93;;;28.00;65.40;;;;;;5071105;28;20176;-70
2022/10/16 01:23:48;;;;;;;5.07;1.27;;;27.90;61.80;;;;;;5071061;28;20262;-70
2022/10/16 01:26:28;;;;;;;5.03;1.30;;;27.80;65.50;;;;;;5071962;28;20164;-70
2022/10/16 01:29:26;;;;;;;7.10;1.03;;;28.60;76.80;;;;;;5091378;28;20714;-72
2022/10/16 01:32:10;;;;;;;3.40;0.70;;;29.50;61.60;;;;;;5035220;28;20223;-72
2022/10/16 01:34:54;;;;;;;5.00;1.37;;;29.20;56.70;;;;;;5070943;28;20230;-69
2022/10/16 01:37:48;;;;;;;3.60;1.07;;;28.10;58.60;;;;;;5087900;28;20266;-72
2022/10/16 01:40:20;;;;;;;6.10;1.20;;;26.90;70.00;;;;;;5071874;28;20249;-72
2022/10/16 01:42:55;;;;;;;4.43;0.80;;;26.50;73.60;;;;;;5070929;28;20172;-72
2022/10/16 01:45:25;;;;;;;3.13;0.73;;;26.20;69.10;;;;;;5072291;28;20218;-71
2022/10/16 01:47:53;;;;;;;2.67;0.90;;;25.70;82.80;;;;;;5078535;28;20193;-71
2022/10/16 01:50:22;;;;;;;2.60;0.87;;;25.30;85.50;;;;;;5094705;28;20168;-71
2022/10/16 01:52:53;;;;;;;5.90;1.30;;;25.90;76.10;;;;;;5094357;28;20199;-71
2022/10/16 01:55:29;;;;;;;4.33;1.00;;;26.30;86.30;;;;;;5094483;28;20248;-72
2022/10/16 01:57:59;;;;;;;3.27;1.07;;;26.40;71.10;;;;;;5092413;28;20179;-70
2022/10/16 02:00:27;;;;;;;5.30;1.07;;;26.10;82.00;;;;;;5090320;28;20223;-71
2022/10/16 02:02:58;;;;;;;6.80;1.20;;;26.00;71.10;;;;;;5073837;28;20592;-67
2022/10/16 02:05:39;;;;;;;1.73;0.80;;;26.00;83.20;;;;;;5079134;28;20179;-69
2022/10/16 02:08:07;;;;;;;4.53;1.20;;;26.20;76.50;;;;;;5085857;28;20262;-70
2022/10/16 02:10:37;;;;;;;3.40;1.00;;;26.40;90.60;;;;;;5057972;28;20218;-72
2022/10/16 02:13:16;;;;;;;5.10;1.27;;;26.30;86.00;;;;;;5093240;28;20218;-71
2022/10/16 02:15:44;;;;;;;5.07;1.27;;;26.00;88.00;;;;;;5094271;28;20190;-70
2022/10/16 02:18:12;;;;;;;1.73;0.87;;;25.80;79.30;;;;;;5093166;28;20667;-70
2022/10/16 02:20:57;;;;;;;4.70;1.00;;;25.80;91.30;;;;;;5062657;28;20206;-71
2022/10/16 02:23:37;;;;;;;2.47;1.10;;;25.70;90.70;;;;;;5073752;28;20207;-72
2022/10/16 02:26:08;;;;;;;2.90;1.10;;;26.00;90.20;;;;;;5073702;28;20594;-68
2022/10/16 02:28:53;;;;;;;5.37;1.07;;;26.00;82.70;;;;;;5079739;28;20182;-70
2022/10/16 02:31:27;;;;;;;5.93;1.10;;;26.10;89.20;;;;;;5073520;28;20241;-68
2022/10/16 02:33:59;;;;;;;2.83;1.43;;;26.60;93.40;;;;;;5074612;28;20512;-70
2022/10/16 02:36:27;;;;;;;3.90;1.27;;;26.40;88.70;;;;;;5093895;28;20193;-71
2022/10/16 02:38:56;;;;;;;5.37;1.77;;;26.00;91.70;;;;;;5091750;28;20179;-70
2022/10/16 02:41:25;;;;;;;4.83;1.67;;;25.40;94.20;;;;;;5085627;28;20549;-69
2022/10/16 02:43:54;;;;;;;6.30;1.47;;;25.00;99.30;;;;;;5074841;28;20195;-69
2022/10/16 02:46:22;;;;;;;8.90;1.90;;;24.80;99.90;;;;;;5073334;28;20642;-70
2022/10/16 02:48:50;;;;;;;4.73;1.80;;;24.70;99.90;;;;;;5084336;28;20189;-69
2022/10/16 02:51:18;;;;;;;7.40;1.93;;;24.40;99.90;;;;;;5073204;28;20645;-69
2022/10/16 02:53:46;;;;;;;7.30;1.57;;;25.00;99.90;;;;;;5086175;28;20747;-68
2022/10/16 02:56:13;;;;;;;9.90;2.30;;;25.80;99.90;;;;;;5093308;28;20186;-68
2022/10/16 02:58:41;;;;;;;8.17;1.77;;;26.40;99.90;;;;;;5081709;28;20263;-69
2022/10/16 03:01:10;;;;;;;7.37;1.30;;;26.10;99.90;;;;;;5072569;28;20727;-68
2022/10/16 03:03:38;;;;;;;6.17;1.40;;;26.10;99.90;;;;;;5087890;28;20222;-68
2022/10/16 03:06:06;;;;;;;2.23;1.20;;;25.40;99.90;;;;;;5092956;28;20233;-70
2022/10/16 03:08:34;;;;;;;7.60;1.23;;;25.60;99.90;;;;;;5084050;28;20711;-69
2022/10/16 03:11:02;;;;;;;7.43;1.40;;;25.60;99.90;;;;;;5072629;28;20271;-68
2022/10/16 03:13:29;;;;;;;6.10;1.63;;;25.40;99.90;;;;;;5072432;28;20697;-67
2022/10/16 03:15:57;;;;;;;6.37;1.67;;;24.90;99.90;;;;;;5072513;28;20215;-68
2022/10/16 03:18:25;;;;;;;4.07;1.17;;;24.40;99.90;;;;;;5079385;28;20543;-69
2022/10/16 03:20:53;;;;;;;6.00;1.47;;;25.00;99.90;;;;;;5092711;28;20183;-68
2022/10/16 03:23:20;;;;;;;6.03;1.37;;;25.60;99.90;;;;;;5092811;28;20179;-70
2022/10/16 03:25:48;;;;;;;6.50;1.40;;;25.70;99.90;;;;;;5056418;28;20262;-67
2022/10/16 03:28:16;;;;;;;3.93;1.43;;;25.90;99.90;;;;;;5073536;28;20187;-69
2022/10/16 03:30:44;;;;;;;4.97;1.60;;;25.30;99.90;;;;;;5054306;28;20606;-67
2022/10/16 03:33:12;;;;;;;5.23;1.33;;;24.60;99.90;;;;;;5072192;28;20213;-70
2022/10/16 03:35:40;;;;;;;6.10;1.20;;;24.30;99.90;;;;;;5072836;28;20206;-68
2022/10/16 03:38:08;;;;;;;5.30;1.80;;;23.80;99.90;;;;;;5075624;28;20175;-67
2022/10/16 03:40:36;;;;;;;4.83;1.73;;;23.60;99.90;;;;;;5092307;28;20267;-68
2022/10/16 03:43:04;;;;;;;7.03;1.60;;;23.60;99.90;;;;;;5086545;28;20194;-67
2022/10/16 03:45:31;;;;;;;9.87;3.00;;;23.60;99.90;;;;;;5071941;28;20264;-68
2022/10/16 03:47:59;;;;;;;4.80;1.57;;;23.50;99.90;;;;;;5073928;28;20176;-70
2022/10/16 03:50:27;;;;;;;13.20;4.70;;;23.30;99.90;;;;;;5092198;28;20173;-70
2022/10/16 03:52:55;;;;;;;5.80;1.27;;;23.30;99.90;;;;;;5091955;28;20206;-68
2022/10/16 03:55:22;;;;;;;7.27;1.80;;;23.40;99.90;;;;;;5091997;28;20263;-69
2022/10/16 03:57:50;;;;;;;5.87;1.60;;;23.70;99.90;;;;;;5074588;28;20272;-69
2022/10/16 04:00:19;;;;;;;3.83;1.47;;;24.10;99.90;;;;;;5091793;28;20225;-71
2022/10/16 04:02:46;;;;;;;7.53;1.80;;;24.50;99.90;;;;;;5091876;28;20283;-69
2022/10/16 04:05:14;;;;;;;5.50;1.27;;;24.40;99.90;;;;;;5091808;28;20190;-69
2022/10/16 04:07:42;;;;;;;12.50;1.70;;;24.40;99.90;;;;;;5091838;28;20186;-70
2022/10/16 04:10:10;;;;;;;3.50;1.33;;;24.80;99.90;;;;;;5091311;28;20183;-69
2022/10/16 04:12:38;;;;;;;6.67;2.43;;;25.40;99.90;;;;;;5092056;28;20179;-69
2022/10/16 04:15:06;;;;;;;4.90;1.30;;;24.80;99.90;;;;;;5073764;28;20183;-69
2022/10/16 04:17:33;;;;;;;7.30;1.47;;;24.90;99.90;;;;;;5092070;28;20198;-70
2022/10/16 04:20:01;;;;;;;6.47;2.00;;;25.00;99.90;;;;;;5073220;28;20873;-68
2022/10/16 04:22:29;;;;;;;3.93;1.30;;;25.00;99.90;;;;;;5087833;28;20714;-68
2022/10/16 04:24:57;;;;;;;4.10;1.30;;;24.90;99.90;;;;;;5092233;28;20250;-68
2022/10/16 04:27:25;;;;;;;5.67;1.23;;;25.00;99.90;;;;;;5080065;28;20536;-69
2022/10/16 04:29:52;;;;;;;10.40;1.73;;;24.60;99.90;;;;;;5088506;28;20220;-69
2022/10/16 04:32:20;;;;;;;9.87;1.40;;;24.40;99.90;;;;;;5091722;28;20924;-71
2022/10/16 04:34:48;;;;;;;4.90;1.27;;;23.80;99.90;;;;;;5091503;28;20221;-71
2022/10/16 04:37:16;;;;;;;5.63;1.53;;;23.80;99.90;;;;;;5091789;28;20269;-69
2022/10/16 04:39:44;;;;;;;7.77;1.60;;;23.60;99.90;;;;;;5073165;28;20194;-67
2022/10/16 04:42:12;;;;;;;5.57;1.60;;;23.40;99.90;;;;;;5079956;28;20179;-71
2022/10/16 04:44:40;;;;;;;4.00;1.20;;;23.30;99.90;;;;;;5091510;28;20175;-68
2022/10/16 04:47:08;;;;;;;4.67;1.47;;;23.30;99.90;;;;;;5079945;28;20191;-71
2022/10/16 04:49:36;;;;;;;4.60;1.20;;;23.10;99.90;;;;;;5071384;28;20179;-67
2022/10/16 04:52:04;;;;;;;5.60;1.50;;;23.10;99.90;;;;;;5071411;28;20249;-70
2022/10/16 04:54:31;;;;;;;6.33;1.33;;;23.20;99.90;;;;;;5071376;28;20211;-66
2022/10/16 04:56:59;;;;;;;9.33;1.43;;;23.10;99.90;;;;;;5071389;28;20179;-71
2022/10/16 04:59:27;;;;;;;5.13;1.70;;;23.20;99.90;;;;;;5083790;28;20182;-68
2022/10/16 05:01:55;;;;;;;6.23;1.37;;;23.10;99.90;;;;;;5091364;28;20197;-68
2022/10/16 05:04:23;;;;;;;5.60;1.03;;;23.10;99.90;;;;;;5091418;28;20496;-73
2022/10/16 05:06:51;;;;;;;5.20;1.43;;;23.40;99.90;;;;;;5090005;28;20178;-71
2022/10/16 05:09:19;;;;;;;10.80;3.70;;;23.80;99.90;;;;;;5087819;28;20186;-72
2022/10/16 05:11:46;;;;;;;4.43;1.33;;;23.90;99.90;;;;;;5091351;28;20707;-72
2022/10/16 05:14:14;;;;;;;8.93;1.47;;;23.90;99.90;;;;;;5091600;28;20246;-71
2022/10/16 05:16:42;;;;;;;6.97;1.43;;;23.90;99.90;;;;;;5099688;28;20197;-74
2022/10/16 05:19:10;;;;;;;8.20;1.13;;;23.80;99.90;;;;;;5085237;28;20188;-71
2022/10/16 05:21:38;;;;;;;5.17;1.60;;;24.10;99.90;;;;;;5090215;28;20184;-72
2022/10/16 05:24:06;;;;;;;3.97;1.10;;;24.20;99.90;;;;;;5085061;28;20189;-72
2022/10/16 05:26:33;;;;;;;6.40;1.40;;;24.10;99.90;;;;;;5075471;28;20180;-71
2022/10/16 05:29:02;;;;;;;7.50;1.63;;;24.10;99.90;;;;;;5075729;28;20240;-71
2022/10/16 05:31:30;;;;;;;5.73;1.97;;;24.10;99.90;;;;;;5074796;28;20248;-70
2022/10/16 05:34:00;;;;;;;2.90;1.30;;;24.10;99.90;;;;;;5074809;28;20317;-72
2022/10/16 05:36:28;;;;;;;6.93;1.37;;;23.80;99.90;;;;;;5075068;28;20176;-71
2022/10/16 05:38:56;;;;;;;7.17;1.70;;;23.50;99.90;;;;;;5074817;28;20183;-72
2022/10/16 05:41:25;;;;;;;7.77;2.03;;;23.50;99.90;;;;;;5056780;28;20241;-71
2022/10/16 05:43:54;;;;;;;6.00;1.80;;;23.60;99.90;;;;;;5074662;28;20237;-72
2022/10/16 05:46:22;;;;;;;5.77;1.47;;;23.60;99.90;;;;;;5074600;28;20648;-72
2022/10/16 05:48:52;;;;;;;2.13;1.10;;;23.30;99.90;;;;;;5074655;28;20222;-72
2022/10/16 05:51:19;;;;;;;4.57;1.10;;;23.20;99.90;;;;;;5074659;28;20175;-70
2022/10/16 05:53:47;;;;;;;4.20;1.30;;;23.00;99.90;;;;;;5074505;28;20219;-70
2022/10/16 05:56:15;;;;;;;5.67;1.50;;;23.20;99.90;;;;;;5074479;28;20259;-71
2022/10/16 05:58:44;;;;;;;5.33;1.57;;;23.50;99.90;;;;;;5074380;28;20275;-72
2022/10/16 06:01:18;;;;;;;5.50;1.27;;;23.40;99.90;;;;;;5074107;28;20754;-71
2022/10/16 06:03:46;;;;;;;8.53;2.10;;;23.50;99.90;;;;;;5056385;28;20589;-72
2022/10/16 06:06:20;;;;;;;2.90;1.27;;;23.50;99.90;;;;;;5074258;28;20224;-71
2022/10/16 06:08:49;;;;;;;3.40;1.00;;;23.60;99.90;;;;;;5074035;28;20222;-72
2022/10/16 06:11:19;;;;;;;5.43;1.50;;;23.70;99.90;;;;;;5074216;28;20208;-71
2022/10/16 06:13:51;;;;;;;5.17;1.47;;;23.80;99.90;;;;;;5074076;28;20212;-72
2022/10/16 06:16:19;;;;;;;6.93;1.97;;;23.60;99.90;;;;;;5074391;28;20171;-72
2022/10/16 06:18:47;;;;;;;5.77;1.43;;;23.60;99.90;;;;;;5074049;28;20563;-73
2022/10/16 06:21:21;;;;;;;6.27;1.27;;;23.50;99.90;;;;;;5074118;28;20168;-72
2022/10/16 06:23:49;;;;;;;6.03;1.50;;;23.60;99.90;;;;;;5074068;28;20185;-73
2022/10/16 06:26:19;;;;;;;4.37;1.50;;;23.70;99.90;;;;;;5073995;28;20634;-72
2022/10/16 06:28:47;;;;;;;7.23;1.40;;;23.50;99.90;;;;;;5073924;28;20180;-71
2022/10/16 06:31:16;;;;;;;3.93;1.30;;;23.60;99.90;;;;;;5073495;28;20547;-74
2022/10/16 06:33:45;;;;;;;6.67;1.60;;;23.60;99.90;;;;;;5073438;28;20218;-69
2022/10/16 06:36:16;;;;;;;4.10;1.13;;;23.20;99.90;;;;;;5073760;28;20183;-72
2022/10/16 06:38:45;;;;;;;9.57;1.93;;;22.80;99.90;;;;;;5073778;28;20667;-73
2022/10/16 06:41:18;;;;;;;2.97;1.30;;;22.30;99.90;;;;;;5073792;28;20171;-73
2022/10/16 06:43:47;;;;;;;5.90;1.63;;;22.10;99.90;;;;;;5080761;28;20197;-73
2022/10/16 06:46:17;;;;;;;6.20;1.23;;;21.90;99.90;;;;;;5074243;28;20701;-72
2022/10/16 06:48:45;;;;;;;5.60;1.90;;;21.70;99.90;;;;;;5090481;28;20233;-72
2022/10/16 06:51:15;;;;;;;5.40;1.13;;;21.50;99.90;;;;;;5093624;28;20270;-68
2022/10/16 06:53:46;;;;;;;5.93;1.43;;;21.50;99.90;;;;;;5079139;28;20277;-70
2022/10/16 06:56:22;;;;;;;7.43;1.30;;;21.30;99.90;;;;;;5083483;28;20178;-72
2022/10/16 06:58:51;;;;;;;4.20;1.07;;;21.30;99.90;;;;;;5093380;28;20183;-71
2022/10/16 07:01:22;;;;;;;4.80;1.53;;;21.20;99.90;;;;;;5093395;28;20600;-72
2022/10/16 07:03:50;;;;;;;5.63;1.43;;;21.10;99.90;;;;;;5092756;28;20608;-71
2022/10/16 07:06:21;;;;;;;3.63;1.10;;;20.90;99.90;;;;;;5093108;28;20231;-71
2022/10/16 07:08:49;;;;;;;5.50;1.40;;;20.80;99.90;;;;;;5092811;28;20173;-72
2022/10/16 07:11:20;;;;;;;4.07;1.50;;;20.70;99.90;;;;;;5093272;28;20179;-72
2022/10/16 07:13:51;;;;;;;9.17;1.57;;;20.80;99.90;;;;;;5075345;28;20231;-72
2022/10/16 07:16:22;;;;;;;4.60;1.27;;;20.80;99.90;;;;;;5073019;28;20164;-69
2022/10/16 07:18:51;;;;;;;6.93;1.40;;;20.80;99.90;;;;;;5072899;28;20227;-71
2022/10/16 07:21:20;;;;;;;4.67;1.23;;;20.70;99.90;;;;;;5072765;28;20184;-71
2022/10/16 07:23:57;;;;;;;8.00;1.40;;;21.00;99.90;;;;;;5089897;28;20548;-71
2022/10/16 07:26:26;;;;;;;5.17;1.20;;;21.10;99.90;;;;;;5092822;28;20705;-71
2022/10/16 07:28:54;;;;;;;5.33;1.10;;;21.20;99.90;;;;;;5092850;28;20327;-71
2022/10/16 07:31:23;;;;;;;4.60;1.17;;;21.00;99.90;;;;;;5092968;28;20622;-67
2022/10/16 07:33:51;;;;;;;6.97;1.50;;;21.00;99.90;;;;;;5090675;28;20215;-71
2022/10/16 07:36:20;;;;;;;8.63;1.47;;;20.90;99.90;;;;;;5087639;28;20179;-70
2022/10/16 07:38:48;;;;;;;6.90;1.33;;;20.80;99.90;;;;;;5072629;28;20469;-68
2022/10/16 07:41:19;;;;;;;8.40;1.93;;;20.70;99.90;;;;;;5072556;28;20169;-71
2022/10/16 07:43:54;;;;;;;5.87;1.20;;;20.60;99.90;;;;;;5086537;28;20247;-73
2022/10/16 07:46:23;;;;;;;5.53;1.20;;;20.40;99.90;;;;;;5091981;28;20206;-72
2022/10/16 07:48:51;;;;;;;13.57;1.90;;;20.20;99.90;;;;;;5092699;28;20183;-73
2022/10/16 07:51:22;;;;;;;14.73;1.47;;;20.00;99.90;;;;;;5092444;28;20183;-72
2022/10/16 07:53:50;;;;;;;8.13;1.53;;;19.80;99.90;;;;;;5091831;28;20213;-70
2022/10/16 07:56:20;;;;;;;5.53;1.23;;;19.70;99.90;;;;;;5092341;28;20190;-68
2022/10/16 07:58:49;;;;;;;7.07;1.10;;;19.60;99.90;;;;;;5092327;28;20180;-70
2022/10/16 08:01:18;;;;;;;6.87;1.87;;;19.50;99.90;;;;;;5090286;28;20280;-69
2022/10/16 08:03:51;;;;;;;5.43;1.20;;;19.50;99.90;;;;;;5081246;28;20191;-71
2022/10/16 08:06:21;;;;;;;4.13;1.40;;;19.60;99.90;;;;;;5071974;28;20184;-70
2022/10/16 08:08:49;;;;;;;5.77;1.70;;;19.60;99.90;;;;;;5072021;28;20183;-71
2022/10/16 08:11:17;;;;;;;6.77;1.53;;;19.60;99.90;;;;;;5071814;28;20193;-72
2022/10/16 08:13:45;;;;;;;5.80;1.10;;;19.40;99.90;;;;;;5063796;28;20614;-69
2022/10/16 08:16:13;;;;;;;3.53;1.20;;;19.40;99.90;;;;;;5092104;28;20554;-69
2022/10/16 08:18:41;;;;;;;7.37;1.53;;;19.20;99.90;;;;;;5092061;28;20216;-69
2022/10/16 08:21:18;;;;;;;3.07;1.33;;;19.20;99.90;;;;;;5091889;28;20542;-71
2022/10/16 08:23:46;;;;;;;5.63;1.50;;;19.10;99.90;;;;;;5088687;28;20189;-69
2022/10/16 08:26:14;;;;;;;5.23;1.27;;;19.00;99.90;;;;;;5090936;28;20191;-70
2022/10/16 08:28:42;;;;;;;2.97;1.20;;;18.90;99.90;;;;;;5091572;28;20532;-71
2022/10/16 08:31:13;;;;;;;6.67;1.10;;;18.80;99.90;;;;;;5088277;28;20262;-74
2022/10/16 08:33:44;;;;;;;7.30;1.57;;;18.70;99.90;;;;;;5071674;28;20208;-71
2022/10/16 08:36:12;;;;;;;4.50;1.13;;;18.60;99.90;;;;;;5071569;28;20199;-71
2022/10/16 08:38:41;;;;;;;3.57;1.30;;;18.50;99.90;;;;;;5085885;28;20179;-72
2022/10/16 08:41:32;;;;;;;9.50;1.63;;;18.50;99.90;;;;;;5086973;28;20522;-71
2022/10/16 08:44:36;;;;;;;3.43;1.30;;;18.50;99.90;;;;;;5071692;28;20183;-71
2022/10/16 08:47:22;;;;;;;8.40;1.60;;;18.50;99.90;;;;;;5071500;28;20207;-71
2022/10/16 08:50:03;;;;;;;4.17;1.20;;;18.50;99.90;;;;;;5071258;28;20187;-69
2022/10/16 08:52:35;;;;;;;4.33;1.17;;;18.50;99.90;;;;;;5090003;28;20171;-68
2022/10/16 08:55:04;;;;;;;3.23;1.37;;;18.30;99.90;;;;;;5083178;28;20298;-68
2022/10/16 08:57:32;;;;;;;3.80;1.20;;;18.20;99.90;;;;;;5073254;28;20172;-70
2022/10/16 09:00:13;;;;;;;3.80;1.17;;;18.20;99.90;;;;;;5079281;28;20598;-69
2022/10/16 09:02:53;;;;;;;5.97;1.30;;;18.30;99.90;;;;;;5089498;28;20266;-72
2022/10/16 09:05:39;;;;;;;6.80;1.33;;;18.30;99.90;;;;;;5057716;28;20190;-68
2022/10/16 09:08:31;;;;;;;8.03;1.43;;;18.30;99.90;;;;;;5091190;28;20178;-68
2022/10/16 09:11:10;;;;;;;6.43;1.40;;;18.30;99.90;;;;;;5094503;28;20175;-68
2022/10/16 09:14:08;;;;;;;2.40;1.10;;;18.40;99.90;;;;;;5094156;28;20521;-68
2022/10/16 09:17:04;;;;;;;5.90;1.40;;;18.30;99.90;;;;;;5043666;28;20207;-67
2022/10/16 09:19:38;;;;;;;3.90;1.20;;;18.30;99.90;;;;;;5075419;28;20176;-67
2022/10/16 09:22:20;;;;;;;6.30;1.67;;;18.30;99.90;;;;;;5084426;28;20671;-66
2022/10/16 09:24:48;;;;;;;2.97;1.30;;;18.30;99.90;;;;;;5095481;28;20634;-68
2022/10/16 09:27:16;;;;;;;5.70;1.60;;;18.30;99.90;;;;;;5089921;28;20184;-66
2022/10/16 09:29:44;;;;;;;2.90;1.03;;;18.30;99.90;;;;;;5074845;28;20309;-68
2022/10/16 09:32:18;;;;;;;4.37;1.43;;;18.30;99.90;;;;;;5082206;28;20518;-67
2022/10/16 09:34:53;;;;;;;5.10;1.37;;;18.20;99.90;;;;;;5095075;28;20223;-68
2022/10/16 09:37:23;;;;;;;6.13;1.70;;;18.10;99.90;;;;;;5077140;28;20190;-69
2022/10/16 09:39:55;;;;;;;3.70;1.40;;;18.10;99.90;;;;;;5077258;28;20179;-68
2022/10/16 09:42:34;;;;;;;3.50;1.47;;;18.10;99.90;;;;;;5081821;28;20279;-68
2022/10/16 09:45:03;;;;;;;7.03;1.60;;;18.00;99.90;;;;;;5074112;28;20582;-65
2022/10/16 09:47:35;;;;;;;5.30;1.30;;;18.10;99.90;;;;;;5094790;28;20183;-67
2022/10/16 09:50:20;;;;;;;4.23;1.40;;;18.00;99.90;;;;;;5095013;28;20175;-65
2022/10/16 09:52:48;;;;;;;7.17;2.37;;;18.10;99.90;;;;;;5090333;28;20939;-67
2022/10/16 09:55:18;;;;;;;5.80;1.30;;;18.10;99.90;;;;;;5071140;28;20676;-66
2022/10/16 09:57:53;;;;;;;4.40;1.23;;;18.10;99.90;;;;;;5074491;28;20183;-68
2022/10/16 10:00:23;;;;;;;7.20;1.50;;;18.10;99.90;;;;;;5074530;28;20234;-68
2022/10/16 10:02:51;;;;;;;4.93;1.70;;;18.10;99.90;;;;;;5072209;28;20183;-69
2022/10/16 10:05:28;;;;;;;6.67;1.83;;;18.10;99.90;;;;;;5093847;28;20252;-68
2022/10/16 10:08:07;;;;;;;7.33;1.60;;;18.10;99.90;;;;;;5080099;28;20205;-66
2022/10/16 10:10:41;;;;;;;6.43;1.40;;;18.20;99.90;;;;;;5093578;28;20207;-68
2022/10/16 10:13:23;;;;;;;8.63;1.77;;;18.10;99.90;;;;;;5075699;28;20218;-67
2022/10/16 10:15:53;;;;;;;6.83;1.63;;;18.00;99.90;;;;;;5075577;28;20180;-67
2022/10/16 10:18:23;;;;;;;14.67;2.03;;;17.90;99.90;;;;;;5076590;28;20270;-68
2022/10/16 10:21:02;;;;;;;7.77;1.40;;;18.00;99.90;;;;;;5075455;28;20305;-68
2022/10/16 10:23:31;;;;;;;7.23;1.70;;;18.00;99.90;;;;;;5075504;28;20214;-69
2022/10/16 10:26:21;;;;;;;5.80;1.47;;;18.00;99.90;;;;;;5085513;28;20187;-68
2022/10/16 10:28:51;;;;;;;6.27;1.70;;;18.10;99.90;;;;;;5075630;28;20168;-69
2022/10/16 10:31:29;;;;;;;4.27;1.60;;;18.10;99.90;;;;;;5075700;28;20191;-67
2022/10/16 10:34:27;;;;;;;6.17;1.80;;;18.00;99.90;;;;;;5079519;28;20242;-68
2022/10/16 10:37:06;;;;;;;6.30;1.60;;;18.00;99.90;;;;;;5093723;28;20233;-69
2022/10/16 10:39:51;;;;;;;7.37;2.03;;;18.00;99.90;;;;;;5095451;28;20175;-69
2022/10/16 10:42:46;;;;;;;6.63;1.60;;;17.90;99.90;;;;;;5083862;28;20180;-69
2022/10/16 10:45:24;;;;;;;9.73;2.60;;;17.90;99.90;;;;;;5075011;28;20222;-67
2022/10/16 10:47:52;;;;;;;9.57;1.67;;;17.90;99.90;;;;;;5094260;28;20183;-70
2022/10/16 10:50:23;;;;;;;5.70;1.60;;;17.80;99.90;;;;;;5095128;28;20203;-68
2022/10/16 10:53:26;;;;;;;5.90;1.90;;;17.70;99.90;;;;;;5095405;28;20168;-67
2022/10/16 10:56:20;;;;;;;8.07;2.23;;;17.70;99.90;;;;;;5090337;28;20219;-68
2022/10/16 10:59:23;;;;;;;14.27;2.50;;;17.60;99.90;;;;;;5075195;28;20557;-69
2022/10/16 11:01:57;;;;;;;13.77;2.60;;;17.60;99.90;;;;;;5075195;28;20194;-69
2022/10/16 11:05:08;;;;;;;11.40;1.90;;;17.60;99.90;;;;;;5089192;28;20183;-67
2022/10/16 11:07:49;;;;;;;11.47;2.23;;;17.60;99.90;;;;;;5036695;28;20196;-67
2022/10/16 11:10:26;;;;;;;8.87;2.00;;;17.60;99.90;;;;;;5074885;28;20167;-68
2022/10/16 11:13:01;;;;;;;13.67;3.23;;;17.70;99.90;;;;;;5074421;28;20182;-67
2022/10/16 11:15:39;;;;;;;10.93;2.43;;;17.70;99.90;;;;;;5070773;28;20183;-68
2022/10/16 11:18:09;;;;;;;10.40;2.17;;;17.70;99.90;;;;;;5094799;28;20183;-68
2022/10/16 11:20:47;;;;;;;10.90;2.20;;;17.70;99.90;;;;;;5093877;28;20652;-69
2022/10/16 11:23:33;;;;;;;15.23;3.27;;;17.80;99.90;;;;;;5094444;28;20167;-66
2022/10/16 11:26:06;;;;;;;11.53;2.27;;;17.80;99.90;;;;;;5086727;28;20187;-68
2022/10/16 11:29:04;;;;;;;12.10;2.53;;;17.80;99.90;;;;;;5094742;28;20186;-68
2022/10/16 11:31:39;;;;;;;10.73;2.50;;;17.80;99.90;;;;;;5094295;28;20651;-67
2022/10/16 11:34:21;;;;;;;15.13;2.70;;;17.70;99.90;;;;;;5094397;28;20245;-69
2022/10/16 11:37:12;;;;;;;8.83;2.00;;;17.60;99.90;;;;;;5081253;28;20214;-66
2022/10/16 11:39:41;;;;;;;12.63;2.60;;;17.60;99.90;;;;;;5074207;28;20176;-68
2022/10/16 11:42:38;;;;;;;9.90;2.20;;;17.60;99.90;;;;;;5075127;28;20258;-68
2022/10/16 11:45:28;;;;;;;9.57;2.37;;;17.50;99.90;;;;;;5074114;28;20530;-67
2022/10/16 11:48:00;;;;;;;12.80;2.60;;;17.60;99.90;;;;;;5059911;28;20279;-67
2022/10/16 11:51:18;;;;;;;10.80;2.27;;;17.60;99.90;;;;;;5075030;28;20168;-66
2022/10/16 11:53:52;;;;;;;6.23;2.10;;;17.50;99.90;;;;;;5029490;28;20713;-67
2022/10/16 11:56:22;;;;;;;7.87;1.90;;;17.50;99.90;;;;;;5082131;28;20186;-67
2022/10/16 11:58:56;;;;;;;12.17;2.30;;;17.50;99.90;;;;;;5094014;28;20249;-66
2022/10/16 12:01:33;;;;;;;9.10;2.33;;;17.40;99.90;;;;;;5094015;28;20242;-66
2022/10/16 12:04:15;;;;;;;7.60;2.07;;;17.40;99.90;;;;;;5093954;28;20197;-66
2022/10/16 12:06:58;;;;;;;8.47;2.23;;;17.40;99.90;;;;;;5082284;28;20179;-66
2022/10/16 12:09:27;;;;;;;3.80;2.13;;;17.40;99.90;;;;;;5085333;28;20199;-66
2022/10/16 12:11:55;;;;;;;9.30;1.97;;;17.40;99.90;;;;;;5073523;28;20176;-66
2022/10/16 12:14:39;;;;;;;5.07;1.70;;;17.30;99.90;;;;;;5073513;28;20273;-66
2022/10/16 12:17:35;;;;;;;11.20;2.30;;;17.30;99.90;;;;;;5076162;28;20176;-67
2022/10/16 12:20:30;;;;;;;11.20;2.10;;;17.30;99.90;;;;;;5094064;28;20198;-66
2022/10/16 12:23:06;;;;;;;10.20;2.23;;;17.30;99.90;;;;;;5093769;28;20202;-65
2022/10/16 12:25:46;;;;;;;6.53;1.93;;;17.20;99.90;;;;;;5093805;28;20252;-67
2022/10/16 12:28:16;;;;;;;8.43;1.67;;;17.20;99.90;;;;;;5073183;28;20669;-68
2022/10/16 12:30:53;;;;;;;7.43;1.33;;;17.10;99.90;;;;;;5093581;28;20240;-67
2022/10/16 12:33:33;;;;;;;12.13;2.00;;;17.10;99.90;;;;;;5078129;28;20199;-67
2022/10/16 12:36:08;;;;;;;4.53;1.50;;;17.00;99.90;;;;;;5080596;28;20190;-67
2022/10/16 12:38:45;;;;;;;8.87;1.70;;;17.00;99.90;;;;;;5080297;28;20210;-67
2022/10/16 12:41:24;;;;;;;7.70;1.57;;;17.00;99.90;;;;;;5073321;28;20178;-67
2022/10/16 12:43:51;;;;;;;4.90;1.93;;;17.00;99.90;;;;;;5073230;28;20636;-67
2022/10/16 12:46:19;;;;;;;11.73;2.57;;;16.90;99.90;;;;;;5090422;28;20705;-67
2022/10/16 12:48:48;;;;;;;5.67;1.47;;;16.90;99.90;;;;;;5078549;28;20210;-67
2022/10/16 12:51:30;;;;;;;11.57;1.63;;;16.80;99.90;;;;;;5073188;28;20179;-67
2022/10/16 12:54:01;;;;;;;7.40;1.77;;;16.80;99.90;;;;;;5073154;28;20191;-67
2022/10/16 12:56:45;;;;;;;4.23;1.20;;;16.70;99.90;;;;;;5073059;28;20666;-68
2022/10/16 12:59:44;;;;;;;6.53;1.37;;;16.70;99.90;;;;;;5090592;28;20640;-68
2022/10/16 13:02:30;;;;;;;5.70;1.30;;;16.60;99.90;;;;;;5093625;28;20183;-67
2022/10/16 13:05:13;;;;;;;13.37;2.13;;;16.60;99.90;;;;;;5077588;28;20172;-67
2022/10/16 13:07:59;;;;;;;11.00;1.80;;;16.70;99.90;;;;;;5074029;28;20238;-67
2022/10/16 13:10:56;;;;;;;3.60;1.60;;;16.80;99.90;;;;;;5084336;28;20671;-66
2022/10/16 13:13:26;;;;;;;4.57;1.87;;;16.80;99.90;;;;;;5089748;28;20268;-66
2022/10/16 13:16:43;;;;;;;5.60;1.17;;;16.80;99.90;;;;;;5072969;28;20171;-66
2022/10/16 13:19:18;;;;;;;4.67;1.20;;;16.80;99.90;;;;;;5073147;28;20168;-66